»·PEaware :: SKY410 S59-KSZT

SKY410 :: S59-KSZT

FLIGHT INFORMATION

Flight Status: Arrived
Operator:
Sky High Charters
More flights by this operator :: More flights under this callsign
Pilot: Timothy L. (20714)
Aircraft: PILATUS PC-12 EAGLE
(PC12)
More flights by this aircraft type
Origin: S59 Libby
United States
Destination: KSZT Sandpoint
United States
More flights between these airports :: More routes between these airports
Route: EYESE1 EYESE V448 CLASS
File this flight plan on PilotEdge
Remarks: SKY6 LEG1
Altitude:
(Current/Filed)
12,000ft
Speed:
(Current/Filed)
250kts
Departed: 31-Oct-19 08:05 PM
Arrived: 31-Oct-19 09:03 PM
Distance/Time
Traveled:
43nm/0:58
Distance/Time
To Go:
Arrived

Flight Plot

Page will automatically refresh every two minutes.

Flight plan parsing failed; only flown route is shown


Map Options




Map Legend


Flown Route
Filed Route
Departure Airport
Arrival Airport
Navaid (VOR, NDB)
Fix

Horizontal Profiles

Position Reports

Time Latitude Longitude Heading Altitude Ground
Speed
31-Oct-19 19:56 48.285907 -115.489439 254 2595ft 0kts
31-Oct-19 19:57 48.285907 -115.489439 254 2595ft 0kts
31-Oct-19 19:58 48.285907 -115.489439 254 2595ft 0kts
31-Oct-19 19:59 48.285876 -115.489602 254 2595ft 5kts
31-Oct-19 20:00 48.287535 -115.490422 344 2590ft 19kts
31-Oct-19 20:01 48.290575 -115.492051 251 2583ft 0kts
31-Oct-19 20:02 48.290575 -115.492051 251 2583ft 0kts
31-Oct-19 20:03 48.290282 -115.492781 169 2583ft 3kts
31-Oct-19 20:04 48.288181 -115.491949 164 2586ft 70kts
31-Oct-19 20:05 48.271677 -115.484985 161 3201ft 117kts
31-Oct-19 20:06 48.253493 -115.476732 162 4350ft 125kts
31-Oct-19 20:07 48.233859 -115.468646 163 5500ft 134kts
31-Oct-19 20:08 48.212734 -115.460668 164 6656ft 142kts
31-Oct-19 20:09 48.190304 -115.452917 165 7810ft 150kts
31-Oct-19 20:10 48.166856 -115.445550 166 8953ft 156kts
31-Oct-19 20:11 48.142466 -115.438639 167 10089ft 162kts
31-Oct-19 20:12 48.117874 -115.429478 155 11230ft 164kts
31-Oct-19 20:13 48.092894 -115.416289 159 12001ft 192kts
31-Oct-19 20:14 48.060103 -115.402602 163 12014ft 241kts
31-Oct-19 20:15 48.022641 -115.388518 164 12006ft 257kts
31-Oct-19 20:16 47.988298 -115.410877 242 12006ft 255kts
31-Oct-19 20:17 47.976425 -115.468547 260 12012ft 253kts
31-Oct-19 20:18 47.966911 -115.528177 260 12012ft 254kts
31-Oct-19 20:19 47.956819 -115.588349 259 12012ft 255kts
31-Oct-19 20:20 47.946305 -115.649407 259 12012ft 256kts
31-Oct-19 20:21 47.936081 -115.708254 258 12012ft 256kts
31-Oct-19 20:22 47.925982 -115.766166 258 12012ft 256kts
31-Oct-19 20:23 47.915475 -115.826226 258 12012ft 256kts
31-Oct-19 20:24 47.904891 -115.886527 258 12012ft 256kts
31-Oct-19 20:25 47.894620 -115.944861 258 11987ft 257kts
31-Oct-19 20:26 47.884424 -116.003792 259 11978ft 249kts
31-Oct-19 20:27 47.874571 -116.060364 259 11979ft 242kts
31-Oct-19 20:28 47.864647 -116.116203 259 11979ft 239kts
31-Oct-19 20:29 47.855254 -116.171356 262 11978ft 236kts
31-Oct-19 20:30 47.848671 -116.226652 264 11557ft 244kts
31-Oct-19 20:31 47.842192 -116.283512 264 11101ft 247kts
31-Oct-19 20:32 47.836048 -116.340275 264 10966ft 238kts
31-Oct-19 20:33 47.829773 -116.394597 262 10962ft 232kts
31-Oct-19 20:34 47.822808 -116.448054 262 10962ft 228kts
31-Oct-19 20:35 47.815931 -116.500718 262 10962ft 227kts
31-Oct-19 20:37 47.809089 -116.553103 262 10962ft 226kts
31-Oct-19 20:38 47.802305 -116.605206 262 10963ft 229kts
31-Oct-19 20:39 47.795432 -116.658279 262 10962ft 230kts
31-Oct-19 20:40 47.788872 -116.709169 262 10962ft 231kts
31-Oct-19 20:41 47.781925 -116.763149 262 10961ft 231kts
31-Oct-19 20:42 47.788426 -116.808295 333 10768ft 209kts
31-Oct-19 20:43 47.818934 -116.807921 9 10150ft 215kts
31-Oct-19 20:44 47.851370 -116.802341 8 9508ft 223kts
31-Oct-19 20:45 47.884917 -116.796502 8 8859ft 227kts
31-Oct-19 20:46 47.919605 -116.790418 9 8197ft 230kts
31-Oct-19 20:47 47.954600 -116.784278 9 7536ft 232kts
31-Oct-19 20:48 47.989632 -116.778140 9 6987ft 229kts
31-Oct-19 20:49 48.022276 -116.772548 8 6962ft 211kts
31-Oct-19 20:50 48.052611 -116.767347 8 7026ft 197kts
31-Oct-19 20:51 48.081918 -116.760188 21 6985ft 202kts
31-Oct-19 20:52 48.107420 -116.739336 31 6602ft 218kts
31-Oct-19 20:53 48.134017 -116.714012 31 6151ft 225kts
31-Oct-19 20:54 48.161147 -116.688473 30 5695ft 225kts
31-Oct-19 20:54 48.183013 -116.668158 30 5617ft 210kts
31-Oct-19 20:56 48.211588 -116.644207 26 5320ft 182kts
31-Oct-19 20:56 48.225320 -116.630147 32 4972ft 152kts
31-Oct-19 20:57 48.239890 -116.616573 28 4693ft 108kts
31-Oct-19 20:59 48.254784 -116.602639 30 4047ft 103kts
31-Oct-19 20:59 48.265208 -116.592735 31 3504ft 105kts
31-Oct-19 21:00 48.278601 -116.580002 30 2548ft 114kts
31-Oct-19 21:02 48.293771 -116.565581 31 2136ft 96kts
31-Oct-19 21:02 48.298574 -116.561053 30 2132ft 36kts
31-Oct-19 21:03 48.300102 -116.561034 213 2133ft 13kts
31-Oct-19 21:04 48.299986 -116.561150 213 2133ft 0kts
31-Oct-19 21:05 48.299986 -116.561150 213 2133ft 0kts
31-Oct-19 21:06 48.299986 -116.561150 213 2133ft 0kts
31-Oct-19 21:07 48.299986 -116.561150 213 2133ft 0kts
31-Oct-19 21:08 48.299986 -116.561150 213 2133ft 0kts
31-Oct-19 21:09 48.299986 -116.561150 213 2133ft 0kts
31-Oct-19 21:10 48.299986 -116.561150 213 2133ft 0kts

Navigation Log

Ident Type
Flight plan parsing failed, navigation log unavailable